sensor_id;sensor_type;location;lat;lon;timestamp;P1;durP1;ratioP1;P2;durP2;ratioP2
38455;SDS011;24237;50.106;20.014;2024-01-07T00:01:58;21.60;;;10.02;;
38455;SDS011;24237;50.106;20.014;2024-01-07T00:04:24;20.65;;;9.68;;
38455;SDS011;24237;50.106;20.014;2024-01-07T00:06:50;23.00;;;10.80;;
38455;SDS011;24237;50.106;20.014;2024-01-07T00:09:16;22.35;;;10.80;;
38455;SDS011;24237;50.106;20.014;2024-01-07T00:11:41;20.52;;;9.70;;
38455;SDS011;24237;50.106;20.014;2024-01-07T00:14:07;18.25;;;9.77;;
38455;SDS011;24237;50.106;20.014;2024-01-07T00:16:33;19.45;;;10.05;;
38455;SDS011;24237;50.106;20.014;2024-01-07T00:18:59;19.20;;;9.23;;
38455;SDS011;24237;50.106;20.014;2024-01-07T00:21:25;23.60;;;9.85;;
38455;SDS011;24237;50.106;20.014;2024-01-07T00:23:51;16.48;;;9.02;;
38455;SDS011;24237;50.106;20.014;2024-01-07T00:26:16;18.33;;;9.00;;
38455;SDS011;24237;50.106;20.014;2024-01-07T00:28:42;16.40;;;8.50;;
38455;SDS011;24237;50.106;20.014;2024-01-07T00:31:08;16.30;;;7.78;;
38455;SDS011;24237;50.106;20.014;2024-01-07T00:33:34;16.58;;;8.13;;
38455;SDS011;24237;50.106;20.014;2024-01-07T00:36:01;17.63;;;8.20;;
38455;SDS011;24237;50.106;20.014;2024-01-07T00:38:27;21.10;;;9.77;;
38455;SDS011;24237;50.106;20.014;2024-01-07T00:40:53;18.95;;;7.38;;
38455;SDS011;24237;50.106;20.014;2024-01-07T00:43:18;18.25;;;8.27;;
38455;SDS011;24237;50.106;20.014;2024-01-07T00:45:44;19.73;;;10.55;;
38455;SDS011;24237;50.106;20.014;2024-01-07T00:48:10;18.90;;;9.75;;
38455;SDS011;24237;50.106;20.014;2024-01-07T00:50:35;20.13;;;9.82;;
38455;SDS011;24237;50.106;20.014;2024-01-07T00:53:01;19.88;;;9.82;;
38455;SDS011;24237;50.106;20.014;2024-01-07T00:55:27;17.77;;;9.63;;
38455;SDS011;24237;50.106;20.014;2024-01-07T00:57:53;21.67;;;10.35;;
38455;SDS011;24237;50.106;20.014;2024-01-07T01:00:18;13.93;;;7.40;;
38455;SDS011;24237;50.106;20.014;2024-01-07T01:02:45;18.55;;;8.60;;
38455;SDS011;24237;50.106;20.014;2024-01-07T01:05:11;19.50;;;8.95;;
38455;SDS011;24237;50.106;20.014;2024-01-07T01:07:37;18.70;;;8.65;;
38455;SDS011;24237;50.106;20.014;2024-01-07T01:10:02;17.65;;;9.05;;
38455;SDS011;24237;50.106;20.014;2024-01-07T01:12:28;23.25;;;7.82;;
38455;SDS011;24237;50.106;20.014;2024-01-07T01:14:54;12.05;;;6.32;;
38455;SDS011;24237;50.106;20.014;2024-01-07T01:17:20;16.77;;;7.93;;
38455;SDS011;24237;50.106;20.014;2024-01-07T01:19:45;15.63;;;6.55;;
38455;SDS011;24237;50.106;20.014;2024-01-07T01:22:11;16.92;;;8.10;;
38455;SDS011;24237;50.106;20.014;2024-01-07T01:24:37;16.58;;;7.90;;
38455;SDS011;24237;50.106;20.014;2024-01-07T01:27:03;12.43;;;6.70;;
38455;SDS011;24237;50.106;20.014;2024-01-07T01:29:29;14.60;;;7.70;;
38455;SDS011;24237;50.106;20.014;2024-01-07T01:31:56;17.17;;;8.80;;
38455;SDS011;24237;50.106;20.014;2024-01-07T01:34:22;11.82;;;6.43;;
38455;SDS011;24237;50.106;20.014;2024-01-07T01:36:47;14.20;;;6.55;;
38455;SDS011;24237;50.106;20.014;2024-01-07T01:39:15;17.67;;;8.10;;
38455;SDS011;24237;50.106;20.014;2024-01-07T01:41:40;11.65;;;5.88;;
38455;SDS011;24237;50.106;20.014;2024-01-07T01:44:06;15.05;;;7.85;;
38455;SDS011;24237;50.106;20.014;2024-01-07T01:46:32;11.57;;;6.38;;
38455;SDS011;24237;50.106;20.014;2024-01-07T01:48:58;17.27;;;8.13;;
38455;SDS011;24237;50.106;20.014;2024-01-07T01:51:24;14.73;;;7.57;;
38455;SDS011;24237;50.106;20.014;2024-01-07T01:53:50;15.18;;;8.13;;
38455;SDS011;24237;50.106;20.014;2024-01-07T01:56:17;18.15;;;8.85;;
38455;SDS011;24237;50.106;20.014;2024-01-07T01:58:45;14.95;;;7.35;;
38455;SDS011;24237;50.106;20.014;2024-01-07T02:01:12;11.25;;;6.07;;
38455;SDS011;24237;50.106;20.014;2024-01-07T02:03:38;16.02;;;7.30;;
38455;SDS011;24237;50.106;20.014;2024-01-07T02:06:04;14.93;;;6.82;;
38455;SDS011;24237;50.106;20.014;2024-01-07T02:08:30;14.20;;;6.88;;
38455;SDS011;24237;50.106;20.014;2024-01-07T02:10:56;13.43;;;5.85;;
38455;SDS011;24237;50.106;20.014;2024-01-07T02:13:22;12.00;;;6.25;;
38455;SDS011;24237;50.106;20.014;2024-01-07T02:15:47;16.33;;;6.45;;
38455;SDS011;24237;50.106;20.014;2024-01-07T02:18:13;14.55;;;6.30;;
38455;SDS011;24237;50.106;20.014;2024-01-07T02:20:39;16.65;;;8.52;;
38455;SDS011;24237;50.106;20.014;2024-01-07T02:23:05;15.73;;;8.13;;
38455;SDS011;24237;50.106;20.014;2024-01-07T02:25:37;13.63;;;6.60;;
38455;SDS011;24237;50.106;20.014;2024-01-07T02:28:03;16.05;;;6.47;;
38455;SDS011;24237;50.106;20.014;2024-01-07T02:30:30;11.32;;;6.60;;
38455;SDS011;24237;50.106;20.014;2024-01-07T02:32:55;15.52;;;7.38;;
38455;SDS011;24237;50.106;20.014;2024-01-07T02:35:21;12.77;;;6.30;;
38455;SDS011;24237;50.106;20.014;2024-01-07T02:37:47;13.15;;;6.45;;
38455;SDS011;24237;50.106;20.014;2024-01-07T02:40:12;14.10;;;6.28;;
38455;SDS011;24237;50.106;20.014;2024-01-07T02:42:38;8.40;;;5.25;;
38455;SDS011;24237;50.106;20.014;2024-01-07T02:45:04;14.98;;;6.25;;
38455;SDS011;24237;50.106;20.014;2024-01-07T02:47:30;16.48;;;5.70;;
38455;SDS011;24237;50.106;20.014;2024-01-07T02:49:56;16.98;;;6.22;;
38455;SDS011;24237;50.106;20.014;2024-01-07T02:52:21;11.43;;;4.80;;
38455;SDS011;24237;50.106;20.014;2024-01-07T02:54:47;12.18;;;6.28;;
38455;SDS011;24237;50.106;20.014;2024-01-07T02:57:13;12.20;;;5.95;;
38455;SDS011;24237;50.106;20.014;2024-01-07T02:59:38;11.95;;;6.13;;
38455;SDS011;24237;50.106;20.014;2024-01-07T03:02:04;13.15;;;6.03;;
38455;SDS011;24237;50.106;20.014;2024-01-07T03:04:30;11.23;;;5.63;;
38455;SDS011;24237;50.106;20.014;2024-01-07T03:06:55;9.85;;;5.25;;
38455;SDS011;24237;50.106;20.014;2024-01-07T03:09:21;11.52;;;6.13;;
38455;SDS011;24237;50.106;20.014;2024-01-07T03:11:47;10.32;;;4.50;;
38455;SDS011;24237;50.106;20.014;2024-01-07T03:14:12;7.95;;;4.53;;
38455;SDS011;24237;50.106;20.014;2024-01-07T03:16:38;9.02;;;4.90;;
38455;SDS011;24237;50.106;20.014;2024-01-07T03:19:04;9.10;;;4.90;;
38455;SDS011;24237;50.106;20.014;2024-01-07T03:21:29;6.93;;;3.83;;
38455;SDS011;24237;50.106;20.014;2024-01-07T03:23:55;10.43;;;3.28;;
38455;SDS011;24237;50.106;20.014;2024-01-07T03:26:21;9.35;;;4.57;;
38455;SDS011;24237;50.106;20.014;2024-01-07T03:28:46;10.45;;;4.75;;
38455;SDS011;24237;50.106;20.014;2024-01-07T03:31:13;13.45;;;5.22;;
38455;SDS011;24237;50.106;20.014;2024-01-07T03:33:41;10.73;;;4.90;;
38455;SDS011;24237;50.106;20.014;2024-01-07T03:36:11;12.32;;;4.15;;
38455;SDS011;24237;50.106;20.014;2024-01-07T03:38:37;8.00;;;4.05;;
38455;SDS011;24237;50.106;20.014;2024-01-07T03:41:05;10.05;;;4.90;;
38455;SDS011;24237;50.106;20.014;2024-01-07T03:43:31;12.63;;;6.00;;
38455;SDS011;24237;50.106;20.014;2024-01-07T03:45:57;9.95;;;4.53;;
38455;SDS011;24237;50.106;20.014;2024-01-07T03:48:23;8.98;;;5.20;;
38455;SDS011;24237;50.106;20.014;2024-01-07T03:50:49;11.07;;;5.25;;
38455;SDS011;24237;50.106;20.014;2024-01-07T03:53:15;8.40;;;4.28;;
38455;SDS011;24237;50.106;20.014;2024-01-07T03:55:41;6.25;;;3.45;;
38455;SDS011;24237;50.106;20.014;2024-01-07T03:58:06;10.60;;;4.63;;
38455;SDS011;24237;50.106;20.014;2024-01-07T04:00:32;11.07;;;4.80;;
38455;SDS011;24237;50.106;20.014;2024-01-07T04:02:58;11.60;;;4.97;;
38455;SDS011;24237;50.106;20.014;2024-01-07T04:05:24;5.72;;;3.00;;
38455;SDS011;24237;50.106;20.014;2024-01-07T04:07:50;9.98;;;5.03;;
38455;SDS011;24237;50.106;20.014;2024-01-07T04:10:16;9.27;;;4.30;;
38455;SDS011;24237;50.106;20.014;2024-01-07T04:12:42;7.60;;;3.97;;
38455;SDS011;24237;50.106;20.014;2024-01-07T04:15:08;8.63;;;3.67;;
38455;SDS011;24237;50.106;20.014;2024-01-07T04:17:34;9.63;;;4.83;;
38455;SDS011;24237;50.106;20.014;2024-01-07T04:20:00;10.88;;;5.13;;
38455;SDS011;24237;50.106;20.014;2024-01-07T04:22:26;6.20;;;3.40;;
38455;SDS011;24237;50.106;20.014;2024-01-07T04:24:52;8.07;;;4.03;;
38455;SDS011;24237;50.106;20.014;2024-01-07T04:27:18;9.55;;;5.20;;
38455;SDS011;24237;50.106;20.014;2024-01-07T04:29:43;13.63;;;5.07;;
38455;SDS011;24237;50.106;20.014;2024-01-07T04:32:09;9.57;;;4.95;;
38455;SDS011;24237;50.106;20.014;2024-01-07T04:34:35;9.82;;;5.13;;
38455;SDS011;24237;50.106;20.014;2024-01-07T04:37:00;7.35;;;4.35;;
38455;SDS011;24237;50.106;20.014;2024-01-07T04:39:26;6.75;;;4.18;;
38455;SDS011;24237;50.106;20.014;2024-01-07T04:41:52;9.13;;;4.78;;
38455;SDS011;24237;50.106;20.014;2024-01-07T04:44:17;10.55;;;5.10;;
38455;SDS011;24237;50.106;20.014;2024-01-07T04:46:43;8.23;;;4.43;;
38455;SDS011;24237;50.106;20.014;2024-01-07T04:49:09;10.27;;;4.88;;
38455;SDS011;24237;50.106;20.014;2024-01-07T04:51:35;11.40;;;5.88;;
38455;SDS011;24237;50.106;20.014;2024-01-07T04:54:03;11.10;;;5.32;;
38455;SDS011;24237;50.106;20.014;2024-01-07T04:56:29;13.63;;;5.70;;
38455;SDS011;24237;50.106;20.014;2024-01-07T04:58:55;11.30;;;5.60;;
38455;SDS011;24237;50.106;20.014;2024-01-07T05:01:20;14.13;;;6.43;;
38455;SDS011;24237;50.106;20.014;2024-01-07T05:03:46;9.68;;;4.50;;
38455;SDS011;24237;50.106;20.014;2024-01-07T05:06:12;12.40;;;6.15;;
38455;SDS011;24237;50.106;20.014;2024-01-07T05:08:39;17.35;;;6.47;;
38455;SDS011;24237;50.106;20.014;2024-01-07T05:11:06;12.85;;;6.50;;
38455;SDS011;24237;50.106;20.014;2024-01-07T05:13:32;11.95;;;6.63;;
38455;SDS011;24237;50.106;20.014;2024-01-07T05:15:58;13.05;;;6.75;;
38455;SDS011;24237;50.106;20.014;2024-01-07T05:18:24;15.15;;;5.80;;
38455;SDS011;24237;50.106;20.014;2024-01-07T05:20:50;11.88;;;5.97;;
38455;SDS011;24237;50.106;20.014;2024-01-07T05:23:16;12.07;;;5.80;;
38455;SDS011;24237;50.106;20.014;2024-01-07T05:25:42;12.57;;;6.38;;
38455;SDS011;24237;50.106;20.014;2024-01-07T05:28:09;11.93;;;7.10;;
38455;SDS011;24237;50.106;20.014;2024-01-07T05:30:35;15.48;;;6.43;;
38455;SDS011;24237;50.106;20.014;2024-01-07T05:33:01;14.43;;;6.03;;
38455;SDS011;24237;50.106;20.014;2024-01-07T05:35:26;14.63;;;7.22;;
38455;SDS011;24237;50.106;20.014;2024-01-07T05:37:52;14.90;;;6.93;;
38455;SDS011;24237;50.106;20.014;2024-01-07T05:40:18;13.23;;;7.30;;
38455;SDS011;24237;50.106;20.014;2024-01-07T05:42:43;14.60;;;7.35;;
38455;SDS011;24237;50.106;20.014;2024-01-07T05:45:09;11.60;;;6.65;;
38455;SDS011;24237;50.106;20.014;2024-01-07T05:47:35;15.13;;;7.35;;
38455;SDS011;24237;50.106;20.014;2024-01-07T05:50:00;16.35;;;7.30;;
38455;SDS011;24237;50.106;20.014;2024-01-07T05:52:27;16.80;;;7.65;;
38455;SDS011;24237;50.106;20.014;2024-01-07T05:54:53;16.40;;;8.55;;
38455;SDS011;24237;50.106;20.014;2024-01-07T05:57:18;15.98;;;7.50;;
38455;SDS011;24237;50.106;20.014;2024-01-07T05:59:44;12.98;;;6.70;;
38455;SDS011;24237;50.106;20.014;2024-01-07T06:02:11;15.50;;;7.18;;
38455;SDS011;24237;50.106;20.014;2024-01-07T06:04:37;13.97;;;7.17;;
38455;SDS011;24237;50.106;20.014;2024-01-07T06:07:03;10.98;;;6.00;;
38455;SDS011;24237;50.106;20.014;2024-01-07T06:09:29;16.98;;;7.20;;
38455;SDS011;24237;50.106;20.014;2024-01-07T06:11:55;15.60;;;6.88;;
38455;SDS011;24237;50.106;20.014;2024-01-07T06:14:22;12.63;;;6.50;;
38455;SDS011;24237;50.106;20.014;2024-01-07T06:16:48;13.15;;;6.63;;
38455;SDS011;24237;50.106;20.014;2024-01-07T06:19:15;15.85;;;7.70;;
38455;SDS011;24237;50.106;20.014;2024-01-07T06:21:42;10.23;;;5.50;;
38455;SDS011;24237;50.106;20.014;2024-01-07T06:24:07;12.90;;;6.20;;
38455;SDS011;24237;50.106;20.014;2024-01-07T06:26:33;10.60;;;6.05;;
38455;SDS011;24237;50.106;20.014;2024-01-07T06:28:59;15.00;;;7.88;;
38455;SDS011;24237;50.106;20.014;2024-01-07T06:31:26;12.65;;;6.22;;
38455;SDS011;24237;50.106;20.014;2024-01-07T06:33:52;18.67;;;7.68;;
38455;SDS011;24237;50.106;20.014;2024-01-07T06:36:17;14.82;;;7.40;;
38455;SDS011;24237;50.106;20.014;2024-01-07T06:38:43;15.10;;;7.22;;
38455;SDS011;24237;50.106;20.014;2024-01-07T06:41:09;12.02;;;5.65;;
38455;SDS011;24237;50.106;20.014;2024-01-07T06:43:36;12.13;;;5.50;;
38455;SDS011;24237;50.106;20.014;2024-01-07T06:46:02;14.88;;;7.55;;
38455;SDS011;24237;50.106;20.014;2024-01-07T06:48:29;13.02;;;7.00;;
38455;SDS011;24237;50.106;20.014;2024-01-07T06:50:55;16.35;;;7.30;;
38455;SDS011;24237;50.106;20.014;2024-01-07T06:53:20;14.38;;;6.55;;
38455;SDS011;24237;50.106;20.014;2024-01-07T06:55:46;12.38;;;6.80;;
38455;SDS011;24237;50.106;20.014;2024-01-07T06:58:12;14.70;;;6.88;;
38455;SDS011;24237;50.106;20.014;2024-01-07T07:00:38;13.00;;;7.35;;
38455;SDS011;24237;50.106;20.014;2024-01-07T07:03:04;15.00;;;7.38;;
38455;SDS011;24237;50.106;20.014;2024-01-07T07:05:30;15.80;;;7.53;;
38455;SDS011;24237;50.106;20.014;2024-01-07T07:07:56;13.15;;;6.00;;
38455;SDS011;24237;50.106;20.014;2024-01-07T07:10:22;10.82;;;6.05;;
38455;SDS011;24237;50.106;20.014;2024-01-07T07:12:48;14.95;;;5.57;;
38455;SDS011;24237;50.106;20.014;2024-01-07T07:17:41;11.15;;;6.30;;
38455;SDS011;24237;50.106;20.014;2024-01-07T07:20:07;14.30;;;6.68;;
38455;SDS011;24237;50.106;20.014;2024-01-07T07:22:33;14.83;;;7.50;;
38455;SDS011;24237;50.106;20.014;2024-01-07T07:24:59;12.13;;;5.85;;
38455;SDS011;24237;50.106;20.014;2024-01-07T07:27:25;12.82;;;6.68;;
38455;SDS011;24237;50.106;20.014;2024-01-07T07:29:51;12.88;;;6.40;;
38455;SDS011;24237;50.106;20.014;2024-01-07T07:32:16;16.95;;;7.43;;
38455;SDS011;24237;50.106;20.014;2024-01-07T07:34:43;14.38;;;7.05;;
38455;SDS011;24237;50.106;20.014;2024-01-07T07:37:08;14.30;;;6.82;;
38455;SDS011;24237;50.106;20.014;2024-01-07T07:39:35;15.98;;;7.55;;
38455;SDS011;24237;50.106;20.014;2024-01-07T07:42:00;14.80;;;7.10;;
38455;SDS011;24237;50.106;20.014;2024-01-07T07:44:26;15.68;;;7.55;;
38455;SDS011;24237;50.106;20.014;2024-01-07T07:46:52;12.75;;;7.13;;
38455;SDS011;24237;50.106;20.014;2024-01-07T07:49:18;12.68;;;6.22;;
38455;SDS011;24237;50.106;20.014;2024-01-07T07:51:44;11.23;;;6.07;;
38455;SDS011;24237;50.106;20.014;2024-01-07T07:54:09;11.25;;;5.85;;
38455;SDS011;24237;50.106;20.014;2024-01-07T07:56:35;10.63;;;5.72;;
38455;SDS011;24237;50.106;20.014;2024-01-07T07:59:01;14.02;;;6.63;;
38455;SDS011;24237;50.106;20.014;2024-01-07T08:01:28;15.52;;;6.43;;
38455;SDS011;24237;50.106;20.014;2024-01-07T08:03:54;14.88;;;5.65;;
38455;SDS011;24237;50.106;20.014;2024-01-07T08:06:19;15.57;;;6.53;;
38455;SDS011;24237;50.106;20.014;2024-01-07T08:08:45;16.85;;;6.53;;
38455;SDS011;24237;50.106;20.014;2024-01-07T08:11:11;11.65;;;6.18;;
38455;SDS011;24237;50.106;20.014;2024-01-07T08:13:37;12.82;;;5.93;;
38455;SDS011;24237;50.106;20.014;2024-01-07T08:16:03;17.08;;;7.82;;
38455;SDS011;24237;50.106;20.014;2024-01-07T08:18:35;14.90;;;7.72;;
38455;SDS011;24237;50.106;20.014;2024-01-07T08:21:00;20.95;;;6.97;;
38455;SDS011;24237;50.106;20.014;2024-01-07T08:23:26;13.68;;;6.65;;
38455;SDS011;24237;50.106;20.014;2024-01-07T08:25:52;13.52;;;6.57;;
38455;SDS011;24237;50.106;20.014;2024-01-07T08:28:18;14.77;;;7.50;;
38455;SDS011;24237;50.106;20.014;2024-01-07T08:30:45;17.85;;;8.10;;
38455;SDS011;24237;50.106;20.014;2024-01-07T08:33:11;14.60;;;6.38;;
38455;SDS011;24237;50.106;20.014;2024-01-07T08:35:37;14.68;;;6.88;;
38455;SDS011;24237;50.106;20.014;2024-01-07T08:38:03;12.48;;;6.53;;
38455;SDS011;24237;50.106;20.014;2024-01-07T08:40:29;13.52;;;6.45;;
38455;SDS011;24237;50.106;20.014;2024-01-07T08:42:56;15.63;;;6.68;;
38455;SDS011;24237;50.106;20.014;2024-01-07T08:45:21;11.15;;;6.25;;
38455;SDS011;24237;50.106;20.014;2024-01-07T08:47:47;13.38;;;6.72;;
38455;SDS011;24237;50.106;20.014;2024-01-07T08:50:13;19.30;;;7.15;;
38455;SDS011;24237;50.106;20.014;2024-01-07T08:52:39;14.13;;;5.93;;
38455;SDS011;24237;50.106;20.014;2024-01-07T08:55:05;15.07;;;7.63;;
38455;SDS011;24237;50.106;20.014;2024-01-07T08:57:34;16.67;;;7.97;;
38455;SDS011;24237;50.106;20.014;2024-01-07T09:00:00;16.38;;;6.93;;
38455;SDS011;24237;50.106;20.014;2024-01-07T09:02:26;16.45;;;7.60;;
38455;SDS011;24237;50.106;20.014;2024-01-07T09:04:52;20.10;;;7.68;;
38455;SDS011;24237;50.106;20.014;2024-01-07T09:07:18;15.98;;;6.80;;
38455;SDS011;24237;50.106;20.014;2024-01-07T09:09:44;18.70;;;6.88;;
38455;SDS011;24237;50.106;20.014;2024-01-07T09:12:10;12.90;;;7.30;;
38455;SDS011;24237;50.106;20.014;2024-01-07T09:14:37;13.80;;;6.45;;
38455;SDS011;24237;50.106;20.014;2024-01-07T09:17:03;13.02;;;6.32;;
38455;SDS011;24237;50.106;20.014;2024-01-07T09:19:28;16.40;;;7.68;;
38455;SDS011;24237;50.106;20.014;2024-01-07T09:21:54;15.93;;;6.57;;
38455;SDS011;24237;50.106;20.014;2024-01-07T09:24:20;13.70;;;6.60;;
38455;SDS011;24237;50.106;20.014;2024-01-07T09:26:46;13.57;;;5.78;;
38455;SDS011;24237;50.106;20.014;2024-01-07T09:29:12;16.58;;;7.15;;
38455;SDS011;24237;50.106;20.014;2024-01-07T09:31:38;11.93;;;5.93;;
38455;SDS011;24237;50.106;20.014;2024-01-07T09:34:04;13.50;;;6.85;;
38455;SDS011;24237;50.106;20.014;2024-01-07T09:36:32;12.38;;;6.53;;
38455;SDS011;24237;50.106;20.014;2024-01-07T09:38:58;15.63;;;7.70;;
38455;SDS011;24237;50.106;20.014;2024-01-07T09:41:23;14.70;;;6.78;;
38455;SDS011;24237;50.106;20.014;2024-01-07T09:43:50;15.57;;;6.88;;
38455;SDS011;24237;50.106;20.014;2024-01-07T09:46:18;14.32;;;7.28;;
38455;SDS011;24237;50.106;20.014;2024-01-07T09:48:44;15.02;;;6.50;;
38455;SDS011;24237;50.106;20.014;2024-01-07T09:51:10;13.85;;;7.22;;
38455;SDS011;24237;50.106;20.014;2024-01-07T09:53:38;14.23;;;7.20;;
38455;SDS011;24237;50.106;20.014;2024-01-07T09:56:11;14.55;;;7.40;;
38455;SDS011;24237;50.106;20.014;2024-01-07T09:58:41;17.70;;;8.25;;
38455;SDS011;24237;50.106;20.014;2024-01-07T10:01:08;18.67;;;7.38;;
38455;SDS011;24237;50.106;20.014;2024-01-07T10:03:34;13.20;;;7.50;;
38455;SDS011;24237;50.106;20.014;2024-01-07T10:06:00;14.25;;;7.82;;
38455;SDS011;24237;50.106;20.014;2024-01-07T10:08:26;13.73;;;6.85;;
38455;SDS011;24237;50.106;20.014;2024-01-07T10:10:52;16.17;;;7.53;;
38455;SDS011;24237;50.106;20.014;2024-01-07T10:13:19;12.10;;;6.20;;
38455;SDS011;24237;50.106;20.014;2024-01-07T10:15:45;14.93;;;6.72;;
38455;SDS011;24237;50.106;20.014;2024-01-07T10:18:11;19.83;;;7.90;;
38455;SDS011;24237;50.106;20.014;2024-01-07T10:20:38;18.27;;;8.13;;
38455;SDS011;24237;50.106;20.014;2024-01-07T10:23:04;17.13;;;7.63;;
38455;SDS011;24237;50.106;20.014;2024-01-07T10:25:31;21.67;;;9.02;;
38455;SDS011;24237;50.106;20.014;2024-01-07T10:28:00;19.23;;;9.05;;
38455;SDS011;24237;50.106;20.014;2024-01-07T10:30:26;12.88;;;6.63;;
38455;SDS011;24237;50.106;20.014;2024-01-07T10:32:59;19.20;;;8.30;;
38455;SDS011;24237;50.106;20.014;2024-01-07T10:35:29;16.92;;;8.43;;
38455;SDS011;24237;50.106;20.014;2024-01-07T10:37:59;17.20;;;8.45;;
38455;SDS011;24237;50.106;20.014;2024-01-07T10:40:26;17.13;;;8.27;;
38455;SDS011;24237;50.106;20.014;2024-01-07T10:42:52;14.98;;;7.40;;
38455;SDS011;24237;50.106;20.014;2024-01-07T10:47:48;15.15;;;7.80;;
38455;SDS011;24237;50.106;20.014;2024-01-07T10:50:16;21.00;;;7.97;;
38455;SDS011;24237;50.106;20.014;2024-01-07T10:52:43;21.35;;;9.52;;
38455;SDS011;24237;50.106;20.014;2024-01-07T10:55:19;16.88;;;8.43;;
38455;SDS011;24237;50.106;20.014;2024-01-07T10:57:47;16.67;;;8.52;;
38455;SDS011;24237;50.106;20.014;2024-01-07T11:00:15;16.88;;;8.23;;
38455;SDS011;24237;50.106;20.014;2024-01-07T11:02:51;15.70;;;8.02;;
38455;SDS011;24237;50.106;20.014;2024-01-07T11:08:24;19.75;;;8.18;;
38455;SDS011;24237;50.106;20.014;2024-01-07T11:10:55;19.52;;;9.45;;
38455;SDS011;24237;50.106;20.014;2024-01-07T11:13:32;17.98;;;8.93;;
38455;SDS011;24237;50.106;20.014;2024-01-07T11:15:59;18.88;;;8.82;;
38455;SDS011;24237;50.106;20.014;2024-01-07T11:18:51;16.15;;;8.82;;
38455;SDS011;24237;50.106;20.014;2024-01-07T11:21:21;22.98;;;9.38;;
38455;SDS011;24237;50.106;20.014;2024-01-07T11:23:47;20.08;;;9.73;;
38455;SDS011;24237;50.106;20.014;2024-01-07T11:26:12;21.77;;;8.80;;
38455;SDS011;24237;50.106;20.014;2024-01-07T11:28:45;17.92;;;9.23;;
38455;SDS011;24237;50.106;20.014;2024-01-07T11:31:13;22.27;;;8.95;;
38455;SDS011;24237;50.106;20.014;2024-01-07T11:33:49;23.92;;;8.57;;
38455;SDS011;24237;50.106;20.014;2024-01-07T11:36:16;13.27;;;6.28;;
38455;SDS011;24237;50.106;20.014;2024-01-07T11:38:51;19.55;;;9.70;;
38455;SDS011;24237;50.106;20.014;2024-01-07T11:41:18;24.05;;;9.75;;
38455;SDS011;24237;50.106;20.014;2024-01-07T11:46:23;18.90;;;9.80;;
38455;SDS011;24237;50.106;20.014;2024-01-07T11:48:52;18.30;;;8.25;;
38455;SDS011;24237;50.106;20.014;2024-01-07T11:51:26;18.40;;;9.13;;
38455;SDS011;24237;50.106;20.014;2024-01-07T11:53:53;23.55;;;9.45;;
38455;SDS011;24237;50.106;20.014;2024-01-07T11:56:19;23.85;;;10.45;;
38455;SDS011;24237;50.106;20.014;2024-01-07T11:58:45;20.77;;;9.15;;
38455;SDS011;24237;50.106;20.014;2024-01-07T12:01:10;25.95;;;10.77;;
38455;SDS011;24237;50.106;20.014;2024-01-07T12:03:36;24.58;;;10.63;;
38455;SDS011;24237;50.106;20.014;2024-01-07T12:06:03;21.02;;;9.50;;
38455;SDS011;24237;50.106;20.014;2024-01-07T12:08:29;21.05;;;9.75;;
38455;SDS011;24237;50.106;20.014;2024-01-07T12:10:56;18.58;;;9.13;;
38455;SDS011;24237;50.106;20.014;2024-01-07T12:13:22;21.25;;;10.25;;
38455;SDS011;24237;50.106;20.014;2024-01-07T12:15:49;12.98;;;7.38;;
38455;SDS011;24237;50.106;20.014;2024-01-07T12:18:15;22.25;;;10.50;;
38455;SDS011;24237;50.106;20.014;2024-01-07T12:20:40;19.25;;;8.32;;
38455;SDS011;24237;50.106;20.014;2024-01-07T12:23:06;23.30;;;11.48;;
38455;SDS011;24237;50.106;20.014;2024-01-07T12:25:33;25.23;;;10.82;;
38455;SDS011;24237;50.106;20.014;2024-01-07T12:27:59;20.48;;;10.15;;
38455;SDS011;24237;50.106;20.014;2024-01-07T12:30:25;19.65;;;10.18;;
38455;SDS011;24237;50.106;20.014;2024-01-07T12:32:51;26.00;;;11.93;;
38455;SDS011;24237;50.106;20.014;2024-01-07T12:35:18;24.33;;;11.02;;
38455;SDS011;24237;50.106;20.014;2024-01-07T12:37:43;25.58;;;11.18;;
38455;SDS011;24237;50.106;20.014;2024-01-07T12:40:09;24.52;;;10.52;;
38455;SDS011;24237;50.106;20.014;2024-01-07T12:42:39;23.05;;;11.88;;
38455;SDS011;24237;50.106;20.014;2024-01-07T12:45:10;19.38;;;10.48;;
38455;SDS011;24237;50.106;20.014;2024-01-07T12:47:38;23.33;;;11.63;;
38455;SDS011;24237;50.106;20.014;2024-01-07T12:50:05;21.55;;;11.35;;
38455;SDS011;24237;50.106;20.014;2024-01-07T12:52:31;20.38;;;10.13;;
38455;SDS011;24237;50.106;20.014;2024-01-07T12:54:56;20.90;;;9.18;;
38455;SDS011;24237;50.106;20.014;2024-01-07T12:57:23;26.15;;;11.90;;
38455;SDS011;24237;50.106;20.014;2024-01-07T12:59:48;22.73;;;11.25;;
38455;SDS011;24237;50.106;20.014;2024-01-07T13:02:14;24.70;;;12.15;;
38455;SDS011;24237;50.106;20.014;2024-01-07T13:04:40;26.17;;;12.57;;
38455;SDS011;24237;50.106;20.014;2024-01-07T13:07:05;27.17;;;12.73;;
38455;SDS011;24237;50.106;20.014;2024-01-07T13:09:31;25.52;;;11.65;;
38455;SDS011;24237;50.106;20.014;2024-01-07T13:11:57;25.27;;;11.55;;
38455;SDS011;24237;50.106;20.014;2024-01-07T13:14:23;25.95;;;12.77;;
38455;SDS011;24237;50.106;20.014;2024-01-07T13:16:49;25.15;;;11.70;;
38455;SDS011;24237;50.106;20.014;2024-01-07T13:19:14;30.02;;;14.35;;
38455;SDS011;24237;50.106;20.014;2024-01-07T13:21:40;28.02;;;12.75;;
38455;SDS011;24237;50.106;20.014;2024-01-07T13:24:06;29.00;;;14.27;;
38455;SDS011;24237;50.106;20.014;2024-01-07T13:26:31;30.65;;;13.20;;
38455;SDS011;24237;50.106;20.014;2024-01-07T13:28:57;26.25;;;13.65;;
38455;SDS011;24237;50.106;20.014;2024-01-07T13:31:23;27.30;;;13.98;;
38455;SDS011;24237;50.106;20.014;2024-01-07T13:33:48;27.67;;;13.50;;
38455;SDS011;24237;50.106;20.014;2024-01-07T13:36:14;28.00;;;12.57;;
38455;SDS011;24237;50.106;20.014;2024-01-07T13:38:40;25.40;;;11.98;;
38455;SDS011;24237;50.106;20.014;2024-01-07T13:41:07;25.50;;;13.20;;
38455;SDS011;24237;50.106;20.014;2024-01-07T13:43:33;32.80;;;14.23;;
38455;SDS011;24237;50.106;20.014;2024-01-07T13:45:59;27.67;;;13.48;;
38455;SDS011;24237;50.106;20.014;2024-01-07T13:48:27;31.88;;;13.80;;
38455;SDS011;24237;50.106;20.014;2024-01-07T13:50:52;33.25;;;14.75;;
38455;SDS011;24237;50.106;20.014;2024-01-07T13:53:19;31.70;;;14.93;;
38455;SDS011;24237;50.106;20.014;2024-01-07T13:55:44;33.95;;;15.65;;
38455;SDS011;24237;50.106;20.014;2024-01-07T13:58:11;30.67;;;14.90;;
38455;SDS011;24237;50.106;20.014;2024-01-07T14:00:37;24.52;;;12.82;;
38455;SDS011;24237;50.106;20.014;2024-01-07T14:03:03;28.67;;;14.43;;
38455;SDS011;24237;50.106;20.014;2024-01-07T14:05:29;27.10;;;13.10;;
38455;SDS011;24237;50.106;20.014;2024-01-07T14:07:55;26.60;;;13.95;;
38455;SDS011;24237;50.106;20.014;2024-01-07T14:10:21;28.25;;;12.18;;
38455;SDS011;24237;50.106;20.014;2024-01-07T14:12:46;28.35;;;11.32;;
38455;SDS011;24237;50.106;20.014;2024-01-07T14:15:12;29.88;;;13.23;;
38455;SDS011;24237;50.106;20.014;2024-01-07T14:17:38;25.00;;;11.40;;
38455;SDS011;24237;50.106;20.014;2024-01-07T14:20:05;25.25;;;11.27;;
38455;SDS011;24237;50.106;20.014;2024-01-07T14:22:33;23.48;;;12.90;;
38455;SDS011;24237;50.106;20.014;2024-01-07T14:24:59;26.27;;;12.65;;
38455;SDS011;24237;50.106;20.014;2024-01-07T14:27:25;26.38;;;13.85;;